Time;durP1;ratioP1;P1;durP2;ratioP2;P2;SDS_P1;SDS_P2;PMS_P1;PMS_P2;Temp;Humidity;BMP_temperature;BMP_pressure;BME280_temperature;BME280_humidity;BME280_pressure;Samples;Min_cycle;Max_cycle;Signal;HPM_P1;HPM_P2
2024/03/26 00:00:11;;;;;;;1.35;1.02;;;12.00;90.40;;;;;;4149161;28;20418;-55
2024/03/26 00:02:13;;;;;;;3.53;1.23;;;11.90;90.90;;;;;;4149501;28;20271;-56
2024/03/26 00:04:14;;;;;;;2.65;0.75;;;11.90;90.10;;;;;;4149150;28;20076;-55
2024/03/26 00:06:16;;;;;;;1.10;0.65;;;11.90;90.50;;;;;;4148996;28;20054;-58
2024/03/26 00:08:18;;;;;;;1.15;0.40;;;12.00;91.00;;;;;;4148869;28;20048;-56
2024/03/26 00:10:20;;;;;;;0.80;0.40;;;12.00;89.40;;;;;;4148887;28;20107;-57
2024/03/26 00:12:22;;;;;;;0.60;0.30;;;12.00;90.60;;;;;;4148981;28;20092;-54
2024/03/26 00:14:24;;;;;;;2.35;0.40;;;12.10;89.30;;;;;;4148860;28;20072;-55
2024/03/26 00:16:25;;;;;;;0.40;0.40;;;12.10;90.00;;;;;;4132793;28;20429;-57
2024/03/26 00:18:27;;;;;;;13.95;2.20;;;12.10;90.10;;;;;;4148255;28;20060;-57
2024/03/26 00:20:29;;;;;;;0.35;0.30;;;12.10;88.80;;;;;;4148776;28;20045;-56
2024/03/26 00:22:30;;;;;;;0.20;0.20;;;12.20;89.00;;;;;;4148982;28;20056;-56
2024/03/26 00:24:32;;;;;;;0.40;0.30;;;12.20;88.60;;;;;;4148872;28;20056;-55
2024/03/26 00:26:35;;;;;;;0.60;0.60;;;12.20;89.00;;;;;;4148839;28;20131;-55
2024/03/26 00:28:37;;;;;;;2.35;0.40;;;12.20;89.40;;;;;;4132437;28;20054;-58
2024/03/26 00:30:39;;;;;;;0.75;0.40;;;12.10;87.90;;;;;;4148556;28;20057;-57
2024/03/26 00:32:41;;;;;;;0.82;0.32;;;12.10;89.00;;;;;;4131773;28;20048;-56
2024/03/26 00:34:42;;;;;;;0.25;0.20;;;12.10;89.70;;;;;;4148520;28;20054;-56
2024/03/26 00:36:44;;;;;;;0.50;0.30;;;12.10;88.40;;;;;;4148613;28;20054;-56
2024/03/26 00:38:46;;;;;;;0.28;0.20;;;12.10;88.80;;;;;;4148824;28;20050;-54
2024/03/26 00:40:47;;;;;;;0.17;0.17;;;12.10;88.70;;;;;;4149056;28;20132;-56
2024/03/26 00:42:50;;;;;;;0.17;0.15;;;12.20;89.60;;;;;;4147220;28;20062;-56
2024/03/26 00:44:52;;;;;;;0.35;0.20;;;12.10;88.60;;;;;;4148701;28;20401;-56
2024/03/26 00:46:53;;;;;;;0.30;0.22;;;12.20;90.10;;;;;;4148549;28;20060;-56
2024/03/26 00:48:55;;;;;;;0.50;0.20;;;12.20;89.60;;;;;;4148287;28;20541;-56
2024/03/26 00:50:57;;;;;;;0.75;0.25;;;12.20;88.90;;;;;;4148341;28;20547;-56
2024/03/26 00:52:58;;;;;;;0.50;0.30;;;12.30;89.70;;;;;;4148446;28;20454;-57
2024/03/26 00:55:00;;;;;;;0.57;0.38;;;12.30;90.00;;;;;;4148444;28;20050;-57
2024/03/26 00:57:02;;;;;;;0.20;0.20;;;12.40;89.80;;;;;;4148444;28;20054;-56
2024/03/26 00:59:05;;;;;;;0.70;0.50;;;12.30;89.40;;;;;;4148303;28;20050;-56
2024/03/26 01:01:08;;;;;;;3.15;0.57;;;12.30;89.10;;;;;;4148225;28;20057;-56
2024/03/26 01:03:09;;;;;;;0.50;0.40;;;12.20;89.30;;;;;;4148265;28;20057;-57
2024/03/26 01:05:11;;;;;;;0.65;0.50;;;12.20;89.10;;;;;;4148398;28;20111;-56
2024/03/26 01:07:13;;;;;;;0.30;0.30;;;12.20;88.40;;;;;;4148362;28;20100;-56
2024/03/26 01:09:15;;;;;;;0.88;0.22;;;12.30;90.10;;;;;;4148058;28;20370;-56
2024/03/26 01:11:16;;;;;;;0.55;0.52;;;12.30;89.10;;;;;;4148053;28;20049;-56
2024/03/26 01:13:18;;;;;;;1.25;0.40;;;12.20;89.10;;;;;;4148059;28;20052;-55
2024/03/26 01:15:21;;;;;;;1.05;0.52;;;12.20;87.70;;;;;;4148012;28;20049;-55
2024/03/26 01:17:23;;;;;;;0.73;0.70;;;12.20;89.60;;;;;;4147484;28;20224;-55
2024/03/26 01:19:25;;;;;;;0.73;0.40;;;12.30;90.40;;;;;;4148429;28;20046;-56
2024/03/26 01:21:26;;;;;;;0.60;0.30;;;12.30;88.40;;;;;;4148205;28;20056;-57
2024/03/26 01:23:28;;;;;;;0.65;0.40;;;12.20;89.10;;;;;;4147865;28;20057;-56
2024/03/26 01:25:30;;;;;;;0.95;0.50;;;12.30;89.70;;;;;;4147692;28;20106;-57
2024/03/26 01:27:32;;;;;;;0.63;0.32;;;12.30;87.80;;;;;;4131833;28;20510;-57
2024/03/26 01:29:34;;;;;;;0.20;0.20;;;12.20;88.40;;;;;;4147632;28;20072;-57
2024/03/26 01:31:37;;;;;;;0.40;0.40;;;12.20;88.70;;;;;;4147396;28;20068;-57
2024/03/26 01:33:40;;;;;;;0.93;0.80;;;12.20;90.00;;;;;;4147821;28;20521;-57
2024/03/26 01:35:50;;;;;;;1.10;0.30;;;12.30;90.70;;;;;;4147920;28;20076;-56
2024/03/26 01:37:53;;;;;;;1.25;0.40;;;12.30;88.70;;;;;;4147776;28;20072;-56
2024/03/26 01:39:54;;;;;;;0.63;0.52;;;12.30;88.50;;;;;;4147436;28;20468;-57
2024/03/26 01:41:56;;;;;;;0.60;0.30;;;12.40;89.30;;;;;;4147682;28;20084;-56
2024/03/26 01:43:58;;;;;;;0.38;0.35;;;12.40;90.00;;;;;;4147466;28;20052;-56
2024/03/26 01:46:00;;;;;;;1.23;0.38;;;12.30;89.00;;;;;;4131134;28;20054;-57
2024/03/26 01:48:03;;;;;;;1.50;0.40;;;12.30;89.70;;;;;;4147559;28;20088;-54
2024/03/26 01:50:10;;;;;;;4.35;0.77;;;12.20;90.40;;;;;;4147481;28;20149;-55
2024/03/26 01:52:12;;;;;;;0.45;0.30;;;12.20;90.30;;;;;;4147791;28;20046;-56
2024/03/26 01:54:14;;;;;;;2.05;0.40;;;12.20;91.40;;;;;;4147230;28;20054;-56
2024/03/26 01:56:18;;;;;;;0.13;0.13;;;12.10;92.10;;;;;;4147598;28;20060;-56
2024/03/26 01:58:20;;;;;;;0.30;0.30;;;12.00;92.80;;;;;;4147345;28;20099;-56
2024/03/26 02:00:24;;;;;;;0.75;0.40;;;12.00;93.50;;;;;;4146991;28;20200;-55
2024/03/26 02:02:26;;;;;;;0.23;0.23;;;11.90;93.50;;;;;;4147485;28;20437;-56
2024/03/26 02:04:29;;;;;;;0.65;0.35;;;11.80;93.30;;;;;;4147244;28;20470;-55
2024/03/26 02:06:31;;;;;;;0.40;0.40;;;11.90;93.70;;;;;;4147349;28;20436;-56
2024/03/26 02:08:33;;;;;;;1.63;0.32;;;11.90;94.60;;;;;;4147215;28;20092;-56
2024/03/26 02:10:34;;;;;;;0.63;0.30;;;11.70;94.60;;;;;;4147193;28;20440;-56
2024/03/26 02:12:36;;;;;;;3.95;0.57;;;11.70;94.60;;;;;;4147062;28;20052;-56
2024/03/26 02:14:38;;;;;;;0.25;0.20;;;11.70;94.70;;;;;;4146902;28;20524;-56
2024/03/26 02:16:40;;;;;;;6.47;0.50;;;11.70;94.60;;;;;;4131014;28;20062;-57
2024/03/26 02:18:41;;;;;;;0.50;0.40;;;11.70;94.60;;;;;;4147020;28;20054;-57
2024/03/26 02:20:44;;;;;;;3.15;0.93;;;11.70;95.00;;;;;;4147144;28;20080;-56
2024/03/26 02:22:46;;;;;;;0.82;0.47;;;11.70;94.60;;;;;;4146908;28;20057;-56
2024/03/26 02:24:47;;;;;;;0.77;0.52;;;11.70;93.90;;;;;;4146638;28;20046;-55
2024/03/26 02:26:51;;;;;;;0.38;0.20;;;11.70;94.50;;;;;;4146691;28;20046;-55
2024/03/26 02:28:54;;;;;;;0.35;0.28;;;11.60;94.50;;;;;;4146533;28;20321;-56
2024/03/26 02:30:56;;;;;;;1.02;0.40;;;11.60;94.10;;;;;;4146551;28;20052;-56
2024/03/26 02:32:57;;;;;;;0.50;0.50;;;11.70;94.60;;;;;;4146648;28;20050;-56
2024/03/26 02:34:59;;;;;;;0.30;0.30;;;11.70;95.20;;;;;;4147048;28;20058;-57
2024/03/26 02:37:01;;;;;;;0.50;0.35;;;11.60;95.70;;;;;;4146528;28;20053;-56
2024/03/26 02:39:03;;;;;;;0.77;0.30;;;11.60;95.30;;;;;;4146775;28;20064;-55
2024/03/26 02:41:05;;;;;;;0.65;0.32;;;11.60;95.40;;;;;;4146742;28;20098;-56
2024/03/26 02:43:08;;;;;;;0.75;0.38;;;11.70;95.40;;;;;;4146366;28;20050;-55
2024/03/26 02:45:10;;;;;;;1.30;0.30;;;11.70;95.60;;;;;;4146406;28;20053;-56
2024/03/26 02:47:11;;;;;;;0.63;0.63;;;11.70;94.70;;;;;;4146531;28;20046;-55
2024/03/26 02:49:13;;;;;;;0.98;0.52;;;11.70;95.10;;;;;;4146610;28;20054;-55
2024/03/26 02:51:15;;;;;;;0.32;0.32;;;11.80;95.50;;;;;;4130203;28;20062;-63
2024/03/26 02:53:18;;;;;;;0.93;0.82;;;11.80;94.70;;;;;;4146427;28;20056;-55
2024/03/26 02:55:20;;;;;;;0.82;0.52;;;11.80;94.40;;;;;;4146587;28;20053;-55
2024/03/26 02:57:22;;;;;;;0.32;0.32;;;11.70;94.50;;;;;;4146360;28;20050;-56
2024/03/26 02:59:25;;;;;;;1.00;0.70;;;11.70;95.00;;;;;;4146222;28;20056;-56
2024/03/26 03:01:29;;;;;;;0.47;0.43;;;11.70;95.00;;;;;;4146172;28;20042;-54
2024/03/26 03:03:33;;;;;;;1.48;0.95;;;11.70;96.00;;;;;;4146317;28;20462;-54
2024/03/26 03:05:34;;;;;;;1.23;0.95;;;11.60;96.90;;;;;;4145579;28;20068;-54
2024/03/26 03:07:36;;;;;;;0.52;0.40;;;11.60;96.90;;;;;;4146103;28;20049;-55
2024/03/26 03:09:39;;;;;;;0.25;0.20;;;11.70;97.10;;;;;;4146235;28;20457;-54
2024/03/26 03:11:41;;;;;;;1.38;0.95;;;11.60;97.30;;;;;;4146305;28;20050;-54
2024/03/26 03:13:42;;;;;;;0.22;0.22;;;11.60;97.60;;;;;;4146097;28;20057;-56
2024/03/26 03:15:45;;;;;;;0.43;0.40;;;11.70;96.50;;;;;;4146153;28;20049;-55
2024/03/26 03:17:47;;;;;;;1.90;0.57;;;11.70;95.90;;;;;;4146112;28;20436;-54
2024/03/26 03:19:48;;;;;;;0.60;0.30;;;11.70;95.70;;;;;;4146255;28;20567;-63
2024/03/26 03:21:50;;;;;;;1.00;0.40;;;11.70;95.80;;;;;;4146163;28;20053;-55
2024/03/26 03:23:52;;;;;;;0.93;0.60;;;11.60;95.90;;;;;;4146355;28;20045;-56
2024/03/26 03:25:53;;;;;;;0.38;0.30;;;11.60;96.30;;;;;;4146119;28;20054;-56
2024/03/26 03:27:55;;;;;;;0.40;0.30;;;11.70;96.70;;;;;;4145871;28;20050;-55
2024/03/26 03:29:57;;;;;;;4.25;1.40;;;11.70;97.40;;;;;;4146167;28;20053;-56
2024/03/26 03:32:00;;;;;;;0.43;0.43;;;11.60;98.00;;;;;;4146085;28;20505;-56
2024/03/26 03:34:01;;;;;;;0.65;0.40;;;11.50;98.50;;;;;;4146010;28;20046;-55
2024/03/26 03:36:04;;;;;;;1.45;0.75;;;11.40;98.60;;;;;;4113548;28;20055;-55
2024/03/26 03:38:05;;;;;;;1.02;0.40;;;11.50;98.70;;;;;;4145858;28;20050;-54
2024/03/26 03:40:07;;;;;;;0.60;0.52;;;11.50;98.60;;;;;;4146035;28;20489;-55
2024/03/26 03:42:09;;;;;;;0.50;0.40;;;11.50;98.30;;;;;;4145481;28;20045;-56
2024/03/26 03:44:12;;;;;;;0.75;0.75;;;11.50;98.20;;;;;;4146213;28;20049;-55
2024/03/26 03:46:13;;;;;;;1.00;0.55;;;11.40;97.80;;;;;;4129868;28;20055;-56
2024/03/26 03:48:16;;;;;;;0.50;0.43;;;11.40;97.20;;;;;;4150341;28;20489;-56
2024/03/26 03:50:17;;;;;;;0.73;0.55;;;11.40;97.80;;;;;;4146126;28;20092;-55
2024/03/26 03:52:19;;;;;;;0.22;0.17;;;11.50;97.70;;;;;;4145966;28;20072;-55
2024/03/26 03:54:20;;;;;;;1.08;0.40;;;11.50;98.10;;;;;;4145949;28;20052;-56
2024/03/26 03:56:22;;;;;;;0.47;0.40;;;11.50;97.40;;;;;;4145628;28;20050;-54
2024/03/26 03:58:23;;;;;;;0.65;0.43;;;11.50;97.60;;;;;;4145977;28;20042;-56
2024/03/26 04:00:25;;;;;;;3.45;1.58;;;11.60;97.20;;;;;;4145714;28;20064;-55
2024/03/26 04:02:26;;;;;;;11.32;0.65;;;11.60;97.50;;;;;;4145960;28;20455;-57
2024/03/26 04:04:29;;;;;;;0.77;0.30;;;11.50;97.00;;;;;;4145825;28;20050;-56
2024/03/26 04:06:30;;;;;;;0.82;0.45;;;11.60;97.90;;;;;;4145777;28;20046;-56
2024/03/26 04:08:32;;;;;;;1.02;0.40;;;11.60;98.30;;;;;;4145816;28;20050;-56
2024/03/26 04:10:39;;;;;;;0.22;0.22;;;11.60;98.30;;;;;;4145440;28;20057;-58
2024/03/26 04:12:40;;;;;;;2.20;0.70;;;11.60;98.10;;;;;;4129218;28;20065;-57
2024/03/26 04:14:42;;;;;;;0.30;0.30;;;11.50;97.60;;;;;;4145779;28;20512;-58
2024/03/26 04:16:46;;;;;;;0.93;0.50;;;11.40;97.10;;;;;;4145603;28;20045;-56
2024/03/26 04:18:47;;;;;;;0.53;0.40;;;11.40;97.70;;;;;;4148633;28;20064;-56
2024/03/26 04:20:50;;;;;;;1.90;1.00;;;11.30;97.30;;;;;;4132477;28;20092;-57
2024/03/26 04:22:51;;;;;;;0.85;0.68;;;11.40;97.60;;;;;;4132355;28;20054;-56
2024/03/26 04:24:53;;;;;;;1.75;1.42;;;11.30;96.90;;;;;;4148332;28;20433;-56
2024/03/26 04:26:54;;;;;;;0.55;0.40;;;11.30;97.10;;;;;;4148577;28;20053;-56
2024/03/26 04:28:55;;;;;;;1.10;0.60;;;11.20;96.60;;;;;;4148541;28;20401;-56
2024/03/26 04:30:57;;;;;;;2.22;1.10;;;11.30;97.70;;;;;;4148459;28;20061;-55
2024/03/26 04:32:58;;;;;;;0.82;0.45;;;11.30;96.80;;;;;;4148381;28;20056;-56
2024/03/26 04:35:00;;;;;;;1.90;0.32;;;11.30;97.60;;;;;;4148509;28;20505;-56
2024/03/26 04:37:03;;;;;;;0.40;0.30;;;11.40;97.20;;;;;;4132161;28;20120;-55
2024/03/26 04:39:08;;;;;;;0.75;0.30;;;11.30;97.70;;;;;;4148062;28;20064;-56
2024/03/26 04:41:10;;;;;;;0.30;0.28;;;11.30;96.80;;;;;;4148383;28;20060;-56
2024/03/26 04:43:11;;;;;;;0.40;0.38;;;11.30;96.90;;;;;;4148343;28;20527;-56
2024/03/26 04:45:13;;;;;;;2.25;0.68;;;11.30;97.30;;;;;;4148428;28;20052;-56
2024/03/26 04:47:14;;;;;;;0.77;0.63;;;11.30;96.80;;;;;;4148169;28;20547;-56
2024/03/26 04:49:16;;;;;;;0.88;0.35;;;11.30;96.90;;;;;;4148259;28;20046;-55
2024/03/26 04:51:17;;;;;;;0.57;0.57;;;11.30;97.10;;;;;;4148008;28;20064;-56
2024/03/26 04:53:20;;;;;;;0.70;0.57;;;11.20;96.70;;;;;;4148262;28;20045;-55
2024/03/26 04:55:21;;;;;;;0.85;0.82;;;11.30;97.40;;;;;;4147764;28;20065;-56
2024/03/26 04:57:22;;;;;;;0.98;0.57;;;11.20;97.50;;;;;;4147954;28;20053;-55
2024/03/26 04:59:24;;;;;;;0.40;0.40;;;11.20;98.00;;;;;;4148207;28;20068;-55
2024/03/26 05:01:25;;;;;;;0.55;0.55;;;11.20;98.30;;;;;;4148050;28;20053;-56
2024/03/26 05:03:27;;;;;;;0.30;0.30;;;11.20;98.40;;;;;;4148243;28;20142;-57
2024/03/26 05:05:28;;;;;;;1.35;0.75;;;11.30;97.90;;;;;;4147989;28;20053;-57
2024/03/26 05:07:30;;;;;;;1.45;0.70;;;11.20;98.10;;;;;;4147953;28;20045;-56
2024/03/26 05:09:34;;;;;;;0.77;0.55;;;11.20;98.40;;;;;;4147578;28;20049;-57
2024/03/26 05:11:35;;;;;;;1.33;0.45;;;11.20;97.90;;;;;;4147549;28;20052;-54
2024/03/26 05:13:36;;;;;;;0.63;0.40;;;11.10;98.10;;;;;;4147850;28;20096;-54
2024/03/26 05:15:38;;;;;;;1.15;0.65;;;11.10;98.60;;;;;;4147952;28;20050;-56
2024/03/26 05:17:39;;;;;;;0.32;0.22;;;11.10;98.60;;;;;;4147869;28;20058;-56
2024/03/26 05:19:41;;;;;;;0.63;0.50;;;11.10;98.90;;;;;;4147981;28;20056;-56
2024/03/26 05:21:42;;;;;;;2.45;0.45;;;11.10;99.00;;;;;;4147701;28;20044;-56
2024/03/26 05:23:43;;;;;;;0.55;0.30;;;11.20;98.70;;;;;;4147670;28;20075;-55
2024/03/26 05:25:46;;;;;;;0.20;0.20;;;11.20;98.70;;;;;;4131334;28;20058;-55
2024/03/26 05:27:47;;;;;;;1.65;1.25;;;11.20;99.20;;;;;;4147756;28;20072;-54
2024/03/26 05:29:50;;;;;;;0.57;0.40;;;11.20;99.20;;;;;;4147593;28;20057;-54
2024/03/26 05:31:51;;;;;;;0.85;0.60;;;11.30;99.10;;;;;;4147764;28;20054;-54
2024/03/26 05:33:53;;;;;;;1.35;0.32;;;11.30;99.30;;;;;;4147939;28;20424;-54
2024/03/26 05:35:54;;;;;;;1.08;0.52;;;11.30;99.20;;;;;;4147803;28;20050;-53
2024/03/26 05:37:58;;;;;;;0.40;0.40;;;11.30;99.20;;;;;;4147346;28;20075;-54
2024/03/26 05:39:59;;;;;;;0.82;0.50;;;11.40;99.30;;;;;;4147825;28;20052;-54
2024/03/26 05:42:03;;;;;;;0.50;0.30;;;11.30;99.60;;;;;;4147936;28;20050;-54
2024/03/26 05:44:05;;;;;;;1.85;1.25;;;11.30;99.30;;;;;;4147851;28;20046;-53
2024/03/26 05:46:06;;;;;;;0.40;0.40;;;11.30;99.70;;;;;;4147805;28;20072;-54
2024/03/26 05:48:10;;;;;;;0.30;0.30;;;11.20;99.40;;;;;;4147501;28;20129;-52
2024/03/26 05:50:12;;;;;;;0.30;0.30;;;11.20;99.40;;;;;;4147473;28;20045;-54
2024/03/26 05:52:13;;;;;;;0.43;0.43;;;11.30;99.90;;;;;;4147048;28;20111;-56
2024/03/26 05:54:14;;;;;;;0.45;0.30;;;11.30;99.70;;;;;;4147141;28;20060;-53
2024/03/26 05:56:16;;;;;;;1.35;0.52;;;11.30;99.60;;;;;;4147073;28;20054;-54
2024/03/26 05:58:19;;;;;;;0.88;0.28;;;11.30;99.80;;;;;;4147355;28;20046;-54
2024/03/26 06:00:20;;;;;;;1.45;0.50;;;11.40;99.90;;;;;;4147294;28;20478;-55
2024/03/26 06:02:21;;;;;;;1.00;0.55;;;11.30;99.90;;;;;;4131201;28;20054;-56
2024/03/26 06:04:23;;;;;;;1.58;0.65;;;11.40;99.90;;;;;;4147162;28;20432;-56
2024/03/26 06:06:25;;;;;;;1.00;0.70;;;11.40;99.90;;;;;;4146535;28;20286;-57
2024/03/26 06:08:26;;;;;;;0.52;0.30;;;11.40;99.90;;;;;;4147345;28;20057;-56
2024/03/26 06:10:28;;;;;;;0.57;0.40;;;11.40;99.90;;;;;;4146932;28;20485;-54
2024/03/26 06:12:29;;;;;;;2.05;0.60;;;11.40;99.90;;;;;;4147266;28;20397;-54
2024/03/26 06:14:32;;;;;;;0.52;0.40;;;11.40;99.90;;;;;;4147329;28;20053;-54
2024/03/26 06:16:33;;;;;;;0.85;0.50;;;11.40;99.90;;;;;;4146942;28;20050;-53
2024/03/26 06:18:35;;;;;;;0.30;0.30;;;11.40;99.90;;;;;;4146598;28;20054;-53
2024/03/26 06:20:37;;;;;;;1.38;1.27;;;11.40;99.90;;;;;;4146574;28;20041;-54
2024/03/26 06:22:38;;;;;;;1.27;0.60;;;11.40;99.90;;;;;;4146829;28;20068;-55
2024/03/26 06:24:39;;;;;;;0.47;0.40;;;11.40;99.90;;;;;;4146796;28;20060;-57
2024/03/26 06:26:41;;;;;;;0.32;0.22;;;11.40;99.90;;;;;;4146927;28;20049;-55
2024/03/26 06:28:42;;;;;;;0.75;0.32;;;11.40;99.90;;;;;;4146656;28;20065;-56
2024/03/26 06:30:45;;;;;;;0.40;0.20;;;11.40;99.90;;;;;;4146641;28;20054;-56
2024/03/26 06:32:49;;;;;;;0.28;0.28;;;11.50;99.90;;;;;;4146713;28;20052;-56
2024/03/26 06:34:50;;;;;;;2.17;0.50;;;11.50;99.90;;;;;;4130543;28;20049;-56
2024/03/26 06:36:52;;;;;;;2.05;0.60;;;11.50;99.90;;;;;;4146197;28;20072;-56
2024/03/26 06:38:53;;;;;;;0.60;0.40;;;11.40;99.90;;;;;;4146382;28;20049;-57
2024/03/26 06:40:55;;;;;;;1.42;0.35;;;11.40;99.90;;;;;;4145563;28;20064;-55
2024/03/26 06:42:56;;;;;;;0.20;0.20;;;11.50;99.90;;;;;;4146660;28;20168;-56
2024/03/26 06:44:58;;;;;;;0.73;0.40;;;11.50;99.90;;;;;;4130310;28;20050;-57
2024/03/26 06:47:01;;;;;;;1.25;0.93;;;11.40;99.90;;;;;;4146549;28;20050;-55
2024/03/26 06:49:02;;;;;;;0.40;0.40;;;11.50;99.90;;;;;;4146351;28;20172;-56
2024/03/26 06:51:04;;;;;;;3.88;1.08;;;11.60;99.90;;;;;;4146369;28;20072;-55
2024/03/26 06:53:05;;;;;;;1.13;0.73;;;11.60;99.90;;;;;;4147068;28;20050;-55
2024/03/26 06:55:07;;;;;;;0.30;0.22;;;11.70;99.90;;;;;;4147006;28;20053;-56
2024/03/26 06:57:09;;;;;;;0.43;0.43;;;11.70;99.90;;;;;;4146706;28;20396;-56
2024/03/26 06:59:10;;;;;;;1.75;0.90;;;11.80;99.90;;;;;;4146447;28;20415;-55
2024/03/26 07:01:12;;;;;;;0.70;0.70;;;11.80;99.90;;;;;;4146333;28;20509;-57
2024/03/26 07:03:14;;;;;;;3.33;0.90;;;11.80;99.90;;;;;;4146723;28;20050;-58
2024/03/26 07:05:17;;;;;;;0.30;0.30;;;11.80;99.90;;;;;;4146346;28;20050;-56
2024/03/26 07:07:18;;;;;;;3.10;0.40;;;11.70;99.90;;;;;;4131464;28;20056;-58
2024/03/26 07:09:20;;;;;;;0.70;0.70;;;11.80;99.90;;;;;;4146930;28;20046;-57
2024/03/26 07:11:22;;;;;;;0.82;0.40;;;11.90;99.90;;;;;;4146609;28;20521;-57
2024/03/26 07:13:27;;;;;;;0.73;0.57;;;11.90;99.90;;;;;;4146726;28;20579;-58
2024/03/26 07:15:28;;;;;;;0.40;0.40;;;11.90;99.90;;;;;;4146425;28;20046;-56
2024/03/26 07:17:29;;;;;;;1.13;0.30;;;12.00;99.90;;;;;;4146218;28;20068;-57
2024/03/26 07:19:33;;;;;;;0.65;0.45;;;12.00;99.90;;;;;;4146243;28;20049;-56
2024/03/26 07:21:35;;;;;;;1.10;0.70;;;12.10;99.90;;;;;;4146436;28;20557;-56
2024/03/26 07:23:36;;;;;;;0.77;0.30;;;12.00;99.90;;;;;;4146623;28;20372;-56
2024/03/26 07:25:38;;;;;;;0.52;0.35;;;12.10;99.90;;;;;;4146567;28;20104;-57
2024/03/26 07:27:39;;;;;;;0.63;0.30;;;12.20;99.90;;;;;;4146371;28;20046;-57
2024/03/26 07:29:42;;;;;;;1.10;0.60;;;12.20;99.90;;;;;;4146177;28;20067;-57
2024/03/26 07:31:43;;;;;;;1.27;1.17;;;12.20;99.90;;;;;;4146118;28;20052;-57
2024/03/26 07:33:46;;;;;;;1.58;0.63;;;12.20;99.90;;;;;;4145733;28;20527;-56
2024/03/26 07:35:49;;;;;;;1.88;0.60;;;12.20;99.90;;;;;;4146125;28;20060;-57
2024/03/26 07:37:51;;;;;;;0.32;0.30;;;12.20;99.90;;;;;;4146024;28;20050;-57
2024/03/26 07:39:53;;;;;;;1.30;0.90;;;12.30;99.90;;;;;;4145960;28;20052;-54
2024/03/26 07:41:54;;;;;;;0.75;0.70;;;12.30;99.90;;;;;;4137928;28;20050;-55
2024/03/26 07:43:55;;;;;;;0.47;0.32;;;12.30;99.90;;;;;;4129959;28;20050;-55
2024/03/26 07:45:57;;;;;;;3.33;0.95;;;12.40;99.90;;;;;;4145986;28;20060;-54
2024/03/26 07:47:59;;;;;;;0.60;0.40;;;12.40;99.90;;;;;;4145863;28;20437;-54
2024/03/26 07:50:00;;;;;;;0.45;0.40;;;12.40;99.90;;;;;;4146355;28;20046;-55
2024/03/26 07:52:03;;;;;;;0.50;0.40;;;12.50;99.90;;;;;;4146646;28;20042;-55
2024/03/26 07:54:05;;;;;;;0.30;0.30;;;12.50;99.90;;;;;;4149342;28;20448;-54
2024/03/26 07:56:06;;;;;;;0.68;0.68;;;12.70;99.90;;;;;;4149553;28;20057;-55
2024/03/26 07:58:08;;;;;;;1.65;0.52;;;12.70;99.90;;;;;;4149450;28;20049;-54
2024/03/26 08:00:11;;;;;;;1.98;0.55;;;12.60;99.90;;;;;;4149340;28;20141;-54
2024/03/26 08:02:12;;;;;;;0.70;0.55;;;12.60;99.90;;;;;;4148998;28;20054;-54
2024/03/26 08:04:14;;;;;;;0.52;0.47;;;12.50;99.90;;;;;;4148949;28;20052;-53
2024/03/26 08:06:15;;;;;;;0.20;0.20;;;12.50;99.90;;;;;;4149339;28;20056;-55
2024/03/26 08:08:19;;;;;;;1.52;0.40;;;12.50;99.90;;;;;;4148916;28;20068;-54
2024/03/26 08:10:21;;;;;;;0.65;0.60;;;12.40;99.90;;;;;;4148908;28;20046;-53
2024/03/26 08:12:22;;;;;;;2.50;0.80;;;12.40;99.90;;;;;;4149296;28;20054;-54
2024/03/26 08:14:24;;;;;;;0.90;0.43;;;12.40;99.90;;;;;;4149412;28;20045;-53
2024/03/26 08:16:25;;;;;;;0.63;0.50;;;12.40;99.90;;;;;;4149457;28;20058;-55
2024/03/26 08:18:28;;;;;;;1.40;0.57;;;12.40;99.90;;;;;;4148355;28;20432;-54
2024/03/26 08:20:30;;;;;;;0.50;0.50;;;12.50;99.90;;;;;;4149042;28;20057;-53
2024/03/26 08:22:32;;;;;;;0.30;0.30;;;12.50;99.90;;;;;;4148719;28;20046;-54
2024/03/26 08:24:35;;;;;;;1.42;0.60;;;12.40;99.90;;;;;;4149068;28;20121;-53
2024/03/26 08:26:36;;;;;;;1.85;1.40;;;12.40;99.90;;;;;;4148802;28;20046;-53
2024/03/26 08:28:37;;;;;;;2.60;0.40;;;12.40;99.90;;;;;;4149154;28;20413;-54
2024/03/26 08:30:39;;;;;;;1.20;1.10;;;12.50;99.90;;;;;;4148998;28;20056;-54
2024/03/26 08:32:40;;;;;;;0.90;0.57;;;12.40;99.90;;;;;;4132225;28;20047;-55
2024/03/26 08:34:42;;;;;;;0.40;0.40;;;12.50;99.90;;;;;;4148837;28;20054;-54
2024/03/26 08:36:44;;;;;;;0.75;0.50;;;12.60;99.90;;;;;;4132899;28;20051;-53
2024/03/26 08:38:46;;;;;;;1.20;1.00;;;12.50;99.90;;;;;;4149040;28;20428;-57
2024/03/26 08:40:48;;;;;;;1.35;0.63;;;12.50;99.90;;;;;;4148554;28;20052;-56
2024/03/26 08:42:51;;;;;;;1.27;1.05;;;12.50;99.90;;;;;;4148670;28;20050;-54
2024/03/26 08:44:52;;;;;;;0.55;0.40;;;12.40;99.90;;;;;;4148688;28;20038;-54
2024/03/26 08:46:53;;;;;;;1.10;0.77;;;12.50;99.90;;;;;;4148650;28;20056;-53
2024/03/26 08:48:55;;;;;;;1.67;0.60;;;12.50;99.90;;;;;;4148218;28;20054;-54
2024/03/26 08:50:56;;;;;;;3.05;0.77;;;12.60;99.90;;;;;;4148354;28;20134;-55
2024/03/26 08:52:58;;;;;;;0.47;0.40;;;12.60;99.90;;;;;;4148279;28;20056;-54
2024/03/26 08:54:59;;;;;;;0.38;0.30;;;12.60;99.90;;;;;;4148372;28;20096;-54
2024/03/26 08:57:02;;;;;;;0.93;0.60;;;12.60;99.90;;;;;;4148207;28;20514;-54
2024/03/26 08:59:04;;;;;;;0.50;0.50;;;12.60;99.90;;;;;;4148328;28;20057;-54
2024/03/26 09:01:08;;;;;;;1.25;0.80;;;12.60;99.90;;;;;;4147967;28;20052;-54
2024/03/26 09:03:09;;;;;;;4.13;1.95;;;12.70;99.90;;;;;;4148194;28;20049;-56
2024/03/26 09:05:11;;;;;;;0.93;0.60;;;12.60;99.90;;;;;;4147642;28;20394;-57
2024/03/26 09:07:12;;;;;;;3.38;0.60;;;12.60;99.90;;;;;;4147961;28;20056;-56
2024/03/26 09:09:13;;;;;;;0.32;0.30;;;12.60;99.90;;;;;;4148320;28;20076;-56
2024/03/26 09:11:15;;;;;;;1.77;0.85;;;12.60;99.90;;;;;;4147792;28;20058;-57
2024/03/26 09:13:18;;;;;;;0.50;0.43;;;12.50;99.90;;;;;;4148138;28;20048;-57
2024/03/26 09:15:19;;;;;;;0.60;0.43;;;12.50;99.90;;;;;;4131819;28;20054;-57
2024/03/26 09:17:21;;;;;;;0.80;0.65;;;12.40;99.90;;;;;;4148068;28;20092;-57
2024/03/26 09:19:22;;;;;;;2.47;0.98;;;12.50;99.90;;;;;;4131504;28;20493;-57
2024/03/26 09:21:25;;;;;;;1.33;0.93;;;12.40;99.90;;;;;;4131863;28;20515;-56
2024/03/26 09:23:27;;;;;;;0.40;0.40;;;12.40;99.90;;;;;;4132036;28;20522;-56
2024/03/26 09:25:28;;;;;;;0.50;0.50;;;12.40;99.90;;;;;;4131724;28;20057;-58
2024/03/26 09:27:29;;;;;;;1.70;0.60;;;12.30;99.90;;;;;;4131861;28;20054;-57
2024/03/26 09:29:32;;;;;;;1.80;1.40;;;12.30;99.90;;;;;;4131366;28;20046;-56
2024/03/26 09:31:33;;;;;;;4.13;0.80;;;12.50;99.90;;;;;;4131825;28;20076;-56
2024/03/26 09:33:35;;;;;;;1.58;0.82;;;12.50;99.90;;;;;;4131571;28;20068;-55
2024/03/26 09:35:37;;;;;;;0.50;0.50;;;12.50;99.90;;;;;;4132582;28;20046;-57
2024/03/26 09:37:39;;;;;;;0.20;0.20;;;12.60;99.90;;;;;;4132296;28;20058;-56
2024/03/26 09:39:40;;;;;;;0.50;0.38;;;12.70;99.90;;;;;;4138815;28;20489;-57
2024/03/26 09:41:42;;;;;;;2.75;0.63;;;12.70;99.90;;;;;;4147632;28;20046;-56
2024/03/26 09:43:43;;;;;;;1.08;0.70;;;12.80;99.90;;;;;;4147423;28;20056;-55
2024/03/26 09:45:46;;;;;;;1.23;0.63;;;12.80;99.90;;;;;;4147244;28;20054;-56
2024/03/26 09:47:48;;;;;;;0.80;0.70;;;12.90;99.90;;;;;;4147427;28;20052;-55
2024/03/26 09:49:50;;;;;;;0.40;0.40;;;12.90;99.90;;;;;;4147654;28;20128;-56
2024/03/26 09:51:53;;;;;;;2.08;0.82;;;12.90;99.90;;;;;;4147382;28;20060;-56
2024/03/26 09:53:57;;;;;;;1.15;0.60;;;12.90;99.90;;;;;;4147548;28;20242;-55
2024/03/26 09:55:58;;;;;;;0.70;0.50;;;13.00;99.90;;;;;;4147451;28;20116;-55
2024/03/26 09:58:00;;;;;;;0.57;0.20;;;13.00;99.90;;;;;;4147154;28;20057;-56
2024/03/26 10:00:02;;;;;;;0.30;0.30;;;13.10;99.90;;;;;;4147797;28;20147;-56
2024/03/26 10:02:07;;;;;;;0.60;0.40;;;13.00;99.90;;;;;;4147641;28;20047;-56
2024/03/26 10:04:09;;;;;;;0.68;0.47;;;13.00;99.90;;;;;;4146037;28;20050;-55
2024/03/26 10:06:10;;;;;;;1.33;1.05;;;12.80;99.90;;;;;;4144511;28;20536;-57
2024/03/26 10:08:12;;;;;;;0.43;0.40;;;12.70;99.90;;;;;;4146003;28;20056;-56
2024/03/26 10:10:13;;;;;;;0.50;0.38;;;12.60;99.90;;;;;;4147012;28;20380;-56
2024/03/26 10:12:15;;;;;;;0.55;0.40;;;12.60;99.90;;;;;;4146956;28;20049;-55
2024/03/26 10:14:16;;;;;;;0.80;0.30;;;12.50;99.90;;;;;;4146693;28;20054;-56
2024/03/26 10:16:18;;;;;;;0.30;0.30;;;12.50;99.90;;;;;;4147107;28;20060;-56
2024/03/26 10:18:21;;;;;;;0.57;0.30;;;12.50;99.90;;;;;;4147045;28;20064;-56
2024/03/26 10:20:23;;;;;;;0.40;0.40;;;12.60;99.90;;;;;;4145131;28;20104;-56
2024/03/26 10:22:24;;;;;;;0.98;0.70;;;12.60;99.90;;;;;;4146820;28;20053;-55
2024/03/26 10:24:26;;;;;;;4.03;1.40;;;12.50;99.90;;;;;;4146976;28;20072;-56
2024/03/26 10:26:28;;;;;;;1.00;0.80;;;12.60;99.90;;;;;;4147117;28;20060;-57
2024/03/26 10:28:29;;;;;;;0.30;0.30;;;12.60;99.90;;;;;;4146790;28;20052;-56
2024/03/26 10:30:30;;;;;;;2.75;1.00;;;12.40;99.90;;;;;;4147075;28;20042;-57
2024/03/26 10:32:32;;;;;;;0.35;0.32;;;12.50;99.90;;;;;;4147277;28;20058;-56
2024/03/26 10:34:39;;;;;;;0.50;0.32;;;12.40;99.90;;;;;;4146783;28;20054;-59